Portada
METAR-TAF:

METAR-TAF

Aeroports :

Làrnaca, Xipre

latitud: 34-53N, longitud: 033-38E, altitud: 2 m

Observació

L'informe es va fer fa 29 minuts, a les 07:00 UTC
Vent calma
Temperatura 17°C
Humitat 72%
Pressió 1019 hPa
Visibilitat 10 km o més
Escasses núvols a una alçada de 2000 ft

METAR: LCLK 260700Z 00000KT 9999 FEW020 17/12 Q1019 NOSIG

Hora: 09:29 (07:29 UTC)

Pronòstic

L'informe es va fer fa 1 hora i 59 minuts, a les 05:30 UTC
Pronòstic vàlid del 26 a les 06 UTC al 27 a les 06 UTC
Vent 6 kt del Nord-Oest
Visibilitat 10 km o més
Escasses núvols a una alçada de 2000 ft
Evolucionant progressivament
l' 26 a les 09 UTC al 26 a les 12 UTC
Vent 12 kt del Sud/Sud-Oest
Evolucionant progressivament
l' 26 a les 16 UTC al 26 a les 19 UTC
Vent 6 kt del Nord-Oest

TAF: LCLK 260530Z 2606/2706 32006KT 9999 FEW020 BECMG 2609/2612 21012KT BECMG 2616/2619 32006KT

Observacions i pronòstics meteorològics de més de 4000 aeroports (METAR i TAF).

Les estacions disponibles són els punts grocs i vermells al mapa.

Posi el ratolí al punt desitjat per veure el nom de l'estació.

Feu clic per veure les observacions i els pronòstics meteorològics.

Per canviar el mapa: feu clic els botons verds amb una creu de color negre per apropar; al botó verd amb un guió per allunyar la imatge; o en les fletxes verdes per a mapes adjacents.


METAR-TAF: